Scf Vision — WDJ3219 — position and weather

sailwx.info

Track history (hours):
 
Tides and Currents Weather Stations Pressure Air Temp Water Temp Dewpoint Dewpoint Depression Visibility Wind Speed Wind Dir Waves Ship Positions

Scf Vision

Owner: SCF Waxler Marine LLC, St Rose, LA. More information available from US FCC via Universal Licensing System and Coast Guard Vessel Documentation Center.

Last reported at 2018-Jul-07 21:27 UTC. Time now 2018-Jul-22 03:03 UTC.
Position N 32°39' W 091°09'.
Warning: this ship's position is 14 days out of date.

Length 48 m.

Type: Towing. MMSI: 367765930.

Date/timePositionNaut miles runAvg speedWind from/ knotsBaromVisibWave heightAir tempDewpointWater temp
2018-Jul-07 21:27N 32°39' W 091°09'2 4.2
2018-Jul-07 20:59N 32°37' W 091°09'1 2.7
2018-Jul-07 20:30N 32°36' W 091°09'2 3.9
2018-Jul-07 20:00N 32°35' W 091°07'2 3.8
2018-Jul-07 19:30N 32°33' W 091°06'2 4.1
2018-Jul-07 19:00N 32°31' W 091°07'2 4.5
2018-Jul-07 18:30N 32°29' W 091°07'2 3.9
2018-Jul-07 18:00N 32°27' W 091°05'2 4.3
2018-Jul-07 17:30N 32°26' W 091°03'2 4.3
2018-Jul-07 17:00N 32°25' W 091°00'2 3.7
2018-Jul-07 16:30N 32°24' W 090°60'2 4.8
2018-Jul-07 16:00N 32°22' W 091°00'2 4.3
2018-Jul-07 15:30N 32°21' W 090°58'2 4.3
2018-Jul-07 15:00N 32°21' W 090°55'2 3.7
2018-Jul-07 14:30N 32°19' W 090°54'2 3.7
2018-Jul-07 14:00N 32°18' W 090°56'2 4.1
2018-Jul-07 13:30N 32°17' W 090°57'2 3.8
2018-Jul-07 13:00N 32°15' W 090°59'2 4.7
2018-Jul-07 12:30N 32°13' W 090°59'2 4.1
2018-Jul-07 11:59N 32°11' W 090°60'2 3.8
2018-Jul-07 11:30N 32°09' W 091°00'2 3.6
2018-Jul-07 10:59N 32°07' W 091°02'2 3.6
2018-Jul-07 10:25N 32°08' W 091°04'2 4.6
2018-Jul-07 10:00N 32°08' W 091°06'2 3.3
2018-Jul-07 09:30N 32°06' W 091°06'3 4.5
2018-Jul-07 08:45N 32°04' W 091°03'1 3.9
2018-Jul-07 08:30N 32°03' W 091°04'3 5.0
2018-Jul-07 08:00N 32°00' W 091°05'5 4.1
2018-Jul-07 06:46N 31°59' W 091°11'1 4.0
2018-Jul-07 06:30N 31°58' W 091°11'4 4.6
2018-Jul-07 05:36N 31°54' W 091°13'  
2018-Jun-30 13:33N 31°46' W 091°22'1 8.0
2018-Jun-30 13:28N 31°46' W 091°22'4 8.2
2018-Jun-30 12:58N 31°50' W 091°21'3 6.4
2018-Jun-30 12:30N 31°51' W 091°18'4 7.7
2018-Jun-30 12:00N 31°53' W 091°13'4 7.6
2018-Jun-30 11:29N 31°56' W 091°12'3 6.7
2018-Jun-30 11:00N 31°59' W 091°09'4 7.4
2018-Jun-30 10:30N 32°00' W 091°05'4 7.3
2018-Jun-30 09:54N 32°04' W 091°04'3 8.1
2018-Jun-30 09:30N 32°07' W 091°06'3 5.9
2018-Jun-30 09:00N 32°07' W 091°03'3 6.4
2018-Jun-30 08:30N 32°09' W 091°00'4 7.9
2018-Jun-30 08:00N 32°13' W 090°59'4 7.5
2018-Jun-30 07:30N 32°17' W 090°57'4 7.8
2018-Jun-30 07:00N 32°20' W 090°54'3 6.8
2018-Jun-30 06:30N 32°21' W 090°58'3 5.4
2018-Jun-30 06:00N 32°23' W 090°60'3 6.3
2018-Jun-30 05:30N 32°26' W 091°02'4 7.8
2018-Jun-30 05:00N 32°27' W 091°06'4 7.0
2018-Jun-30 04:28N 32°31' W 091°06'3 7.1
2018-Jun-30 04:00N 32°34' W 091°07'4 7.6
2018-Jun-30 03:30N 32°38' W 091°09'8 7.2
2018-Jun-30 02:27N 32°44' W 091°04'  
Track history (hours):
 
Tides and Currents Weather Stations Pressure Air Temp Water Temp Dewpoint Dewpoint Depression Visibility Wind Speed Wind Dir Waves Ship Positions

Scf Vision

Owner: SCF Waxler Marine LLC, St Rose, LA. More information available from US FCC via Universal Licensing System and Coast Guard Vessel Documentation Center.

Last reported at 2018-Jul-07 21:27 UTC. Time now 2018-Jul-22 03:03 UTC.
Position N 32°39' W 091°09'.
Warning: this ship's position is 14 days out of date.

Length 48 m.

Type: Towing. MMSI: 367765930.

Date/timePositionNaut miles runAvg speedWind from/ knotsBaromVisibWave heightAir tempDewpointWater temp
2018-Jul-07 21:27N 32°39' W 091°09'2 4.2
2018-Jul-07 20:59N 32°37' W 091°09'1 2.7
2018-Jul-07 20:30N 32°36' W 091°09'2 3.9
2018-Jul-07 20:00N 32°35' W 091°07'2 3.8
2018-Jul-07 19:30N 32°33' W 091°06'2 4.1
2018-Jul-07 19:00N 32°31' W 091°07'2 4.5
2018-Jul-07 18:30N 32°29' W 091°07'2 3.9
2018-Jul-07 18:00N 32°27' W 091°05'2 4.3
2018-Jul-07 17:30N 32°26' W 091°03'2 4.3
2018-Jul-07 17:00N 32°25' W 091°00'2 3.7
2018-Jul-07 16:30N 32°24' W 090°60'2 4.8
2018-Jul-07 16:00N 32°22' W 091°00'2 4.3
2018-Jul-07 15:30N 32°21' W 090°58'2 4.3
2018-Jul-07 15:00N 32°21' W 090°55'2 3.7
2018-Jul-07 14:30N 32°19' W 090°54'2 3.7
2018-Jul-07 14:00N 32°18' W 090°56'2 4.1
2018-Jul-07 13:30N 32°17' W 090°57'2 3.8
2018-Jul-07 13:00N 32°15' W 090°59'2 4.7
2018-Jul-07 12:30N 32°13' W 090°59'2 4.1
2018-Jul-07 11:59N 32°11' W 090°60'2 3.8
2018-Jul-07 11:30N 32°09' W 091°00'2 3.6
2018-Jul-07 10:59N 32°07' W 091°02'2 3.6
2018-Jul-07 10:25N 32°08' W 091°04'2 4.6
2018-Jul-07 10:00N 32°08' W 091°06'2 3.3
2018-Jul-07 09:30N 32°06' W 091°06'3 4.5
2018-Jul-07 08:45N 32°04' W 091°03'1 3.9
2018-Jul-07 08:30N 32°03' W 091°04'3 5.0
2018-Jul-07 08:00N 32°00' W 091°05'5 4.1
2018-Jul-07 06:46N 31°59' W 091°11'1 4.0
2018-Jul-07 06:30N 31°58' W 091°11'4 4.6
2018-Jul-07 05:36N 31°54' W 091°13'  
2018-Jun-30 13:33N 31°46' W 091°22'1 8.0
2018-Jun-30 13:28N 31°46' W 091°22'4 8.2
2018-Jun-30 12:58N 31°50' W 091°21'3 6.4
2018-Jun-30 12:30N 31°51' W 091°18'4 7.7
2018-Jun-30 12:00N 31°53' W 091°13'4 7.6
2018-Jun-30 11:29N 31°56' W 091°12'3 6.7
2018-Jun-30 11:00N 31°59' W 091°09'4 7.4
2018-Jun-30 10:30N 32°00' W 091°05'4 7.3
2018-Jun-30 09:54N 32°04' W 091°04'3 8.1
2018-Jun-30 09:30N 32°07' W 091°06'3 5.9
2018-Jun-30 09:00N 32°07' W 091°03'3 6.4
2018-Jun-30 08:30N 32°09' W 091°00'4 7.9
2018-Jun-30 08:00N 32°13' W 090°59'4 7.5
2018-Jun-30 07:30N 32°17' W 090°57'4 7.8
2018-Jun-30 07:00N 32°20' W 090°54'3 6.8
2018-Jun-30 06:30N 32°21' W 090°58'3 5.4
2018-Jun-30 06:00N 32°23' W 090°60'3 6.3
2018-Jun-30 05:30N 32°26' W 091°02'4 7.8
2018-Jun-30 05:00N 32°27' W 091°06'4 7.0
2018-Jun-30 04:28N 32°31' W 091°06'3 7.1
2018-Jun-30 04:00N 32°34' W 091°07'4 7.6
2018-Jun-30 03:30N 32°38' W 091°09'8 7.2
2018-Jun-30 02:27N 32°44' W 091°04'  

Dump ship's entire track history